Time;durP1;ratioP1;P1;durP2;ratioP2;P2;SDS_P1;SDS_P2;PMS_P1;PMS_P2;Temp;Humidity;BMP_temperature;BMP_pressure;BME280_temperature;BME280_humidity;BME280_pressure;Samples;Min_cycle;Max_cycle;Signal;HPM_P1;HPM_P2
2021/03/19 00:01:50;;;;;;;15.38;6.07;;;;;;;9.09;100.00;102853.66;5071159;28;20055;-63
2021/03/19 00:04:15;;;;;;;11.75;5.82;;;;;;;9.10;100.00;102855.34;5070984;28;20040;-63
2021/03/19 00:06:41;;;;;;;11.20;6.43;;;;;;;9.10;100.00;102860.81;5052912;28;20052;-63
2021/03/19 00:09:09;;;;;;;7.80;6.00;;;;;;;9.10;100.00;102854.50;5071343;28;20029;-63
2021/03/19 00:11:36;;;;;;;8.88;5.47;;;;;;;9.11;100.00;102856.19;5070954;28;20519;-63
2021/03/19 00:14:04;;;;;;;8.88;5.85;;;;;;;9.09;100.00;102842.75;5070884;28;20070;-63
2021/03/19 00:16:30;;;;;;;14.15;5.55;;;;;;;9.09;100.00;102837.31;5070993;28;20024;-64
2021/03/19 00:18:55;;;;;;;9.55;6.65;;;;;;;9.08;100.00;102835.59;5070687;28;20498;-63
2021/03/19 00:21:21;;;;;;;10.88;5.90;;;;;;;9.09;100.00;102845.47;5071153;28;20033;-64
2021/03/19 00:23:48;;;;;;;10.13;6.30;;;;;;;9.09;100.00;102848.22;5070886;28;20074;-63
2021/03/19 00:26:14;;;;;;;12.65;6.60;;;;;;;9.07;100.00;102833.91;5070572;28;20489;-63
2021/03/19 00:28:39;;;;;;;13.18;6.20;;;;;;;9.07;100.00;102839.38;5070769;28;20125;-63
2021/03/19 00:31:05;;;;;;;9.52;6.40;;;;;;;9.07;100.00;102840.22;5070899;28;20032;-64
2021/03/19 00:33:31;;;;;;;11.25;6.25;;;;;;;9.07;100.00;102844.81;5070206;28;20117;-63
2021/03/19 00:35:57;;;;;;;13.52;6.88;;;;;;;9.05;100.00;102842.28;5070974;28;20509;-64
2021/03/19 00:38:22;;;;;;;16.42;8.00;;;;;;;9.05;100.00;102839.56;5070881;28;20728;-64
2021/03/19 00:40:48;;;;;;;10.88;6.90;;;;;;;9.07;100.00;102845.66;5070539;28;20600;-63
2021/03/19 00:43:16;;;;;;;10.63;7.53;;;;;;;9.05;100.00;102825.94;5070652;28;20135;-64
2021/03/19 00:45:44;;;;;;;18.10;6.47;;;;;;;9.06;100.00;102827.63;5052799;28;20371;-63
2021/03/19 00:48:11;;;;;;;10.75;6.28;;;;;;;9.05;100.00;102830.53;5070468;28;20132;-63
2021/03/19 00:50:39;;;;;;;12.27;5.78;;;;;;;9.04;100.00;102832.41;5070658;28;20097;-64
2021/03/19 00:53:06;;;;;;;9.32;6.00;;;;;;;9.04;100.00;102826.09;5070528;28;20043;-64
2021/03/19 00:55:32;;;;;;;10.07;6.18;;;;;;;9.04;100.00;102824.22;5070386;28;20036;-63
2021/03/19 00:57:58;;;;;;;13.15;6.63;;;;;;;9.04;100.00;102828.84;5070469;28;20051;-64
2021/03/19 01:00:26;;;;;;;11.52;7.28;;;;;;;9.05;100.00;102830.53;5070551;28;20040;-63
2021/03/19 01:02:52;;;;;;;15.25;6.70;;;;;;;9.03;100.00;102822.53;5070266;28;20039;-63
2021/03/19 01:05:23;;;;;;;13.20;6.40;;;;;;;9.03;100.00;102821.69;5070549;28;20032;-64
2021/03/19 01:07:50;;;;;;;9.05;6.18;;;;;;;9.04;100.00;102828.84;5070374;28;20035;-63
2021/03/19 01:10:31;;;;;;;9.88;6.00;;;;;;;9.04;100.00;102834.28;5070324;28;20048;-64
2021/03/19 01:12:57;;;;;;;9.85;6.25;;;;;;;9.03;100.00;102827.13;5070423;28;20090;-63
2021/03/19 01:15:24;;;;;;;11.93;6.97;;;;;;;9.02;100.00;102830.88;5070401;28;20028;-64
2021/03/19 01:17:50;;;;;;;12.82;6.53;;;;;;;9.02;100.00;102825.41;5070205;28;20035;-63
2021/03/19 01:20:16;;;;;;;12.32;6.70;;;;;;;9.03;100.00;102838.03;5070209;28;20056;-63
2021/03/19 01:22:43;;;;;;;13.27;6.60;;;;;;;9.02;100.00;102830.88;5070262;28;20214;-63
2021/03/19 01:25:13;;;;;;;14.98;6.50;;;;;;;8.99;100.00;102821.19;5070170;28;20135;-63
2021/03/19 01:27:38;;;;;;;11.77;6.57;;;;;;;9.00;100.00;102827.47;5070100;28;20044;-63
2021/03/19 01:30:10;;;;;;;14.15;7.30;;;;;;;8.99;100.00;102825.78;5070130;28;20037;-64
2021/03/19 01:32:36;;;;;;;10.07;6.57;;;;;;;8.97;100.00;102827.84;5070121;28;20044;-63
2021/03/19 01:35:03;;;;;;;16.63;6.70;;;;;;;8.95;100.00;102825.31;5070217;28;20051;-63
2021/03/19 01:37:30;;;;;;;14.57;6.50;;;;;;;8.95;100.00;102819.00;5070064;28;20056;-64
2021/03/19 01:39:55;;;;;;;13.13;5.93;;;;;;;8.91;100.00;102824.00;5070143;28;20032;-63
2021/03/19 01:42:21;;;;;;;17.75;6.68;;;;;;;8.91;100.00;102823.16;5070065;28;20534;-64
2021/03/19 01:45:08;;;;;;;12.43;6.40;;;;;;;8.87;100.00;102811.78;5071942;28;20036;-63
2021/03/19 01:48:12;;;;;;;10.95;6.03;;;;;;;8.87;100.00;102805.47;5073978;28;20467;-64
2021/03/19 01:51:15;;;;;;;9.43;5.82;;;;;;;8.85;100.00;102805.66;5073565;28;20576;-63
2021/03/19 01:54:18;;;;;;;13.73;6.40;;;;;;;8.86;100.00;102798.31;5073533;28;20024;-63
2021/03/19 01:57:21;;;;;;;10.40;6.65;;;;;;;8.84;100.00;102794.91;5073580;28;20086;-63
2021/03/19 02:00:25;;;;;;;13.35;6.57;;;;;;;8.83;100.00;102798.66;5073571;28;20031;-63
2021/03/19 02:03:28;;;;;;;14.25;6.78;;;;;;;8.83;100.00;102798.66;5073214;28;20032;-63
2021/03/19 02:06:31;;;;;;;9.98;6.30;;;;;;;8.82;100.00;102791.53;5073319;28;20028;-63
2021/03/19 02:09:35;;;;;;;17.80;6.97;;;;;;;8.81;100.00;102795.28;5055081;28;20036;-63
2021/03/19 02:12:38;;;;;;;8.57;6.10;;;;;;;8.82;100.00;102802.44;5073259;28;20035;-64
2021/03/19 02:15:41;;;;;;;8.98;6.18;;;;;;;8.82;100.00;102807.88;5073264;28;20082;-63
2021/03/19 02:18:45;;;;;;;11.13;7.47;;;;;;;8.83;100.00;102809.56;5073178;28;20036;-63
2021/03/19 02:21:48;;;;;;;9.35;6.55;;;;;;;8.81;100.00;102811.63;5073131;28;20036;-64
2021/03/19 02:24:51;;;;;;;13.73;8.15;;;;;;;8.82;100.00;102818.78;5072952;28;20040;-64
2021/03/19 02:27:54;;;;;;;14.02;7.93;;;;;;;8.81;100.00;102811.63;5072926;28;20035;-63
2021/03/19 02:30:57;;;;;;;12.18;7.78;;;;;;;8.83;100.00;102823.19;5072863;28;20032;-63
2021/03/19 02:33:23;;;;;;;16.02;7.65;;;;;;;8.82;100.00;102807.88;5072935;28;20024;-64
2021/03/19 02:35:55;;;;;;;13.77;8.57;;;;;;;8.82;100.00;102802.44;5072924;28;20032;-63
2021/03/19 02:38:21;;;;;;;13.90;8.07;;;;;;;8.83;100.00;102809.56;5072832;28;20048;-63
2021/03/19 02:40:48;;;;;;;15.70;9.25;;;;;;;8.82;100.00;102807.88;5073095;28;20041;-63
2021/03/19 02:43:16;;;;;;;14.55;9.00;;;;;;;8.83;100.00;102798.66;5072741;28;20085;-63
2021/03/19 02:45:41;;;;;;;13.23;8.45;;;;;;;8.84;100.00;102806.66;5072575;28;20033;-63
2021/03/19 02:48:10;;;;;;;16.70;9.13;;;;;;;8.83;100.00;102804.97;5072550;28;20058;-63
2021/03/19 02:50:36;;;;;;;15.07;8.88;;;;;;;8.84;100.00;102800.38;5073037;28;20036;-63
2021/03/19 02:53:02;;;;;;;18.33;9.25;;;;;;;8.84;100.00;102794.91;5072309;28;20028;-64
2021/03/19 02:55:28;;;;;;;14.80;9.25;;;;;;;8.84;100.00;102784.00;5072116;28;20054;-64
2021/03/19 02:57:53;;;;;;;16.50;8.90;;;;;;;8.82;100.00;102786.91;5072228;28;20044;-63
2021/03/19 03:00:24;;;;;;;14.30;8.60;;;;;;;8.82;100.00;102786.91;5072572;28;20486;-64
2021/03/19 03:02:50;;;;;;;18.80;9.35;;;;;;;8.82;100.00;102780.63;5072298;28;20040;-64
2021/03/19 03:05:17;;;;;;;15.27;10.20;;;;;;;8.81;100.00;102776.22;5072334;28;20032;-63
2021/03/19 03:07:44;;;;;;;16.95;9.30;;;;;;;8.80;100.00;102783.53;5072068;28;20041;-64
2021/03/19 03:10:13;;;;;;;17.45;10.05;;;;;;;8.80;100.00;102783.53;5072415;28;20044;-64
2021/03/19 03:12:44;;;;;;;21.65;11.43;;;;;;;8.76;100.00;102777.63;5036786;28;20040;-64
2021/03/19 03:15:13;;;;;;;19.67;10.50;;;;;;;8.77;100.00;102783.91;5071977;28;20032;-63
2021/03/19 03:17:39;;;;;;;17.98;11.75;;;;;;;8.75;100.00;102783.25;5071766;28;20081;-63
2021/03/19 03:20:11;;;;;;;19.95;11.60;;;;;;;8.74;100.00;102782.41;5071836;28;20052;-63
2021/03/19 03:22:37;;;;;;;18.00;10.45;;;;;;;8.73;100.00;102788.03;5071701;28;20398;-63
2021/03/19 03:25:04;;;;;;;20.20;11.48;;;;;;;8.73;100.00;102783.44;5071962;28;20039;-63
2021/03/19 03:27:30;;;;;;;18.05;11.93;;;;;;;8.73;100.00;102780.69;5071684;28;20568;-63
2021/03/19 03:29:55;;;;;;;21.30;11.25;;;;;;;8.73;100.00;102788.88;5071675;28;20044;-63
2021/03/19 03:32:21;;;;;;;21.10;10.55;;;;;;;8.74;100.00;102784.28;5071651;28;20032;-64
2021/03/19 03:34:46;;;;;;;18.35;11.48;;;;;;;8.74;100.00;102776.09;5071741;28;20545;-63
2021/03/19 03:37:12;;;;;;;17.02;10.90;;;;;;;8.75;100.00;102780.53;5071540;28;20036;-63
2021/03/19 03:39:38;;;;;;;17.55;10.52;;;;;;;8.75;100.00;102780.53;5071615;28;20128;-63
2021/03/19 03:42:05;;;;;;;19.25;10.93;;;;;;;8.73;100.00;102777.97;5071594;28;20044;-63
2021/03/19 03:44:32;;;;;;;18.90;10.38;;;;;;;8.74;100.00;102768.78;5071395;28;20459;-64
2021/03/19 03:46:58;;;;;;;18.40;10.65;;;;;;;8.74;100.00;102773.38;5071466;28;20483;-63
2021/03/19 03:49:25;;;;;;;20.58;12.10;;;;;;;8.73;100.00;102793.47;5053648;28;20071;-63
2021/03/19 03:51:51;;;;;;;18.15;10.77;;;;;;;8.73;100.00;102788.88;5071240;28;20043;-63
2021/03/19 03:54:17;;;;;;;17.08;10.35;;;;;;;8.72;100.00;102787.19;5071262;28;20098;-63
2021/03/19 03:56:44;;;;;;;16.17;9.93;;;;;;;8.72;100.00;102791.78;5071351;28;20020;-63
2021/03/19 03:59:10;;;;;;;16.95;10.27;;;;;;;8.72;100.00;102789.91;5071047;28;20087;-63
2021/03/19 04:01:40;;;;;;;22.10;9.95;;;;;;;8.72;100.00;102795.38;5071247;28;20126;-63
2021/03/19 04:04:09;;;;;;;14.07;9.70;;;;;;;8.72;100.00;102798.09;5071092;28;20044;-63
2021/03/19 04:06:34;;;;;;;17.38;10.43;;;;;;;8.72;100.00;102792.63;5070884;28;20036;-63
2021/03/19 04:09:00;;;;;;;19.98;10.27;;;;;;;8.72;100.00;102797.25;5070237;28;20429;-63
2021/03/19 04:11:26;;;;;;;19.00;10.15;;;;;;;8.71;100.00;102796.38;5071015;28;20036;-63
2021/03/19 04:13:52;;;;;;;16.33;10.27;;;;;;;8.70;100.00;102794.69;5070759;28;20506;-63
2021/03/19 04:16:19;;;;;;;17.40;10.70;;;;;;;8.69;100.00;102793.00;5070951;28;20486;-63
2021/03/19 04:18:46;;;;;;;17.35;11.60;;;;;;;8.70;100.00;102794.69;5070859;28;20056;-64
2021/03/19 04:21:12;;;;;;;17.95;11.20;;;;;;;8.71;100.00;102795.53;5070782;28;20422;-63
2021/03/19 04:23:44;;;;;;;19.13;10.80;;;;;;;8.70;100.00;102783.81;5070712;28;20402;-64
2021/03/19 04:26:24;;;;;;;16.38;11.30;;;;;;;8.69;100.00;102793.00;5070812;28;20040;-63
2021/03/19 04:28:51;;;;;;;19.42;11.07;;;;;;;8.68;100.00;102788.59;5070768;28;20036;-63
2021/03/19 04:31:16;;;;;;;22.52;11.85;;;;;;;8.68;100.00;102785.88;5070799;28;20036;-64
2021/03/19 04:33:43;;;;;;;16.98;10.60;;;;;;;8.67;100.00;102797.75;5070794;28;20054;-63
2021/03/19 04:36:14;;;;;;;17.80;10.48;;;;;;;8.69;100.00;102793.00;5070657;28;20085;-63
2021/03/19 04:38:40;;;;;;;16.63;10.50;;;;;;;8.69;100.00;102793.00;5071156;28;20076;-63
2021/03/19 04:41:08;;;;;;;16.48;10.35;;;;;;;8.70;100.00;102793.84;5070697;28;20048;-64
2021/03/19 04:43:34;;;;;;;17.90;11.57;;;;;;;8.71;100.00;102801.84;5070719;28;20051;-63
2021/03/19 04:46:00;;;;;;;18.08;11.48;;;;;;;8.73;100.00;102802.50;5070503;28;20406;-63
2021/03/19 04:48:25;;;;;;;17.35;10.75;;;;;;;8.74;100.00;102801.47;5070634;28;20117;-63
2021/03/19 04:50:51;;;;;;;17.23;10.98;;;;;;;8.75;100.00;102802.31;5070539;28;20032;-63
2021/03/19 04:53:17;;;;;;;20.15;12.13;;;;;;;8.76;100.00;102799.41;5070566;28;20029;-63
2021/03/19 04:55:42;;;;;;;19.13;11.95;;;;;;;8.79;100.00;102791.91;5070564;28;20119;-63
2021/03/19 04:58:08;;;;;;;20.92;11.68;;;;;;;8.77;100.00;102795.66;5070476;28;20040;-63
2021/03/19 05:00:33;;;;;;;19.05;11.57;;;;;;;8.77;100.00;102795.66;5052460;28;20393;-64
2021/03/19 05:02:59;;;;;;;20.90;11.40;;;;;;;8.77;100.00;102795.66;5070377;28;20410;-63
2021/03/19 05:05:28;;;;;;;19.00;12.23;;;;;;;8.77;100.00;102795.66;5070532;28;20167;-63
2021/03/19 05:07:54;;;;;;;16.98;11.32;;;;;;;8.77;100.00;102795.66;5070341;28;20083;-63
2021/03/19 05:10:23;;;;;;;22.55;11.50;;;;;;;8.76;100.00;102799.41;5070379;28;20028;-63
2021/03/19 05:12:49;;;;;;;16.45;11.32;;;;;;;8.76;100.00;102788.50;5070411;28;20390;-63
2021/03/19 05:15:16;;;;;;;20.30;11.52;;;;;;;8.76;100.00;102788.50;5070349;28;20747;-63
2021/03/19 05:17:42;;;;;;;18.70;11.75;;;;;;;8.76;100.00;102788.50;5052368;28;20375;-63
2021/03/19 05:20:11;;;;;;;18.65;10.23;;;;;;;8.76;100.00;102799.41;5072917;28;20053;-63
2021/03/19 05:22:37;;;;;;;18.10;11.23;;;;;;;8.76;100.00;102804.00;5074094;28;20025;-64
2021/03/19 05:25:05;;;;;;;22.50;11.52;;;;;;;8.76;100.00;102807.59;5074282;28;20048;-63
2021/03/19 05:27:31;;;;;;;15.45;10.48;;;;;;;8.77;100.00;102803.81;5074021;28;20028;-64
2021/03/19 05:29:57;;;;;;;15.48;10.98;;;;;;;8.77;100.00;102806.56;5073941;28;20067;-63
2021/03/19 05:32:27;;;;;;;16.17;11.18;;;;;;;8.77;100.00;102794.81;5074736;28;20480;-64
2021/03/19 05:34:53;;;;;;;21.65;11.70;;;;;;;8.77;100.00;102795.66;5073994;28;20609;-63
2021/03/19 05:37:20;;;;;;;20.73;10.98;;;;;;;8.77;100.00;102800.25;5073455;28;20071;-64
2021/03/19 05:39:46;;;;;;;22.25;11.73;;;;;;;8.76;100.00;102799.41;5073989;28;20044;-63
2021/03/19 05:42:25;;;;;;;21.40;12.50;;;;;;;8.75;100.00;102797.72;5073828;28;20039;-64
2021/03/19 05:44:58;;;;;;;22.45;11.20;;;;;;;8.76;100.00;102804.00;5073805;28;20040;-64
2021/03/19 05:47:25;;;;;;;20.67;12.68;;;;;;;8.75;100.00;102803.16;5073841;28;20060;-63
2021/03/19 05:49:55;;;;;;;23.33;11.43;;;;;;;8.76;100.00;102804.00;5072475;28;20131;-63
2021/03/19 05:52:28;;;;;;;20.70;11.55;;;;;;;8.76;100.00;102799.41;5073574;28;20032;-63
2021/03/19 05:54:55;;;;;;;20.55;11.88;;;;;;;8.78;100.00;102796.50;5073784;28;20475;-63
2021/03/19 05:57:30;;;;;;;15.52;10.23;;;;;;;8.79;100.00;102805.53;5073580;28;20515;-63
2021/03/19 05:59:58;;;;;;;20.02;11.40;;;;;;;8.78;100.00;102810.13;5073511;28;20032;-64
2021/03/19 06:02:28;;;;;;;21.45;11.77;;;;;;;8.80;100.00;102820.84;5073442;28;20044;-63
2021/03/19 06:05:13;;;;;;;18.90;11.55;;;;;;;8.81;100.00;102822.53;5073462;28;20062;-63
2021/03/19 06:07:52;;;;;;;15.65;10.30;;;;;;;8.79;100.00;102824.59;5073324;28;20062;-63
2021/03/19 06:10:18;;;;;;;15.57;9.88;;;;;;;8.78;100.00;102837.38;5073392;28;20471;-63
2021/03/19 06:12:46;;;;;;;20.73;11.50;;;;;;;8.79;100.00;102840.94;5073170;28;20036;-63
2021/03/19 06:15:32;;;;;;;20.05;10.98;;;;;;;8.79;100.00;102846.38;5073243;28;20525;-63
2021/03/19 06:18:03;;;;;;;20.48;11.35;;;;;;;8.81;100.00;102844.31;5073216;28;20040;-63
2021/03/19 06:20:29;;;;;;;18.10;11.13;;;;;;;8.81;100.00;102844.31;5073056;28;20225;-64
2021/03/19 06:23:05;;;;;;;17.13;11.52;;;;;;;8.81;100.00;102849.78;5073157;28;20131;-64
2021/03/19 06:25:55;;;;;;;19.75;11.85;;;;;;;8.83;100.00;102845.00;5073140;28;20478;-63
2021/03/19 06:28:32;;;;;;;22.67;12.35;;;;;;;8.82;100.00;102840.56;5072927;28;20078;-63
2021/03/19 06:31:16;;;;;;;18.33;11.75;;;;;;;8.84;100.00;102852.13;5071907;28;20159;-63
2021/03/19 06:33:42;;;;;;;20.93;13.23;;;;;;;8.82;100.00;102852.31;5072907;28;20032;-63
2021/03/19 06:36:14;;;;;;;21.88;11.45;;;;;;;8.83;100.00;102847.72;5072736;28;20402;-63
2021/03/19 06:38:43;;;;;;;16.95;11.95;;;;;;;8.83;100.00;102851.28;5073040;28;20133;-64
2021/03/19 06:41:31;;;;;;;16.67;11.65;;;;;;;8.84;100.00;102854.88;5072751;28;20036;-64
2021/03/19 06:44:16;;;;;;;20.58;11.50;;;;;;;8.83;100.00;102870.38;5072593;28;20375;-63
2021/03/19 06:46:54;;;;;;;19.52;12.25;;;;;;;8.86;100.00;102880.94;5072702;28;20086;-63
2021/03/19 06:49:23;;;;;;;20.15;12.82;;;;;;;8.87;100.00;102884.50;5072529;28;20040;-63
2021/03/19 06:52:17;;;;;;;21.48;12.43;;;;;;;8.88;100.00;102878.88;5072530;28;20055;-63
2021/03/19 06:54:45;;;;;;;20.48;13.05;;;;;;;8.90;100.00;102881.41;5072697;28;20032;-63
2021/03/19 06:57:14;;;;;;;23.05;14.60;;;;;;;8.93;100.00;102897.38;5054182;28;20068;-63
2021/03/19 06:59:45;;;;;;;22.60;13.98;;;;;;;8.97;100.00;102898.72;5072602;28;20173;-63
2021/03/19 07:02:20;;;;;;;20.38;13.70;;;;;;;9.00;100.00;102896.47;5072359;28;20040;-63
2021/03/19 07:04:56;;;;;;;24.63;13.57;;;;;;;9.06;100.00;102900.38;5072625;28;20044;-63
2021/03/19 07:07:40;;;;;;;25.23;13.35;;;;;;;9.10;100.00;102893.53;5054471;28;20043;-63
2021/03/19 07:10:42;;;;;;;20.33;12.55;;;;;;;9.13;100.00;102901.31;5072356;28;20029;-63
2021/03/19 07:13:35;;;;;;;18.05;13.00;;;;;;;9.15;100.00;102915.63;5071881;28;20107;-63
2021/03/19 07:16:15;;;;;;;21.92;13.48;;;;;;;9.16;100.00;102903.69;5072171;28;20450;-63
2021/03/19 07:19:01;;;;;;;23.25;14.30;;;;;;;9.17;100.00;102910.84;5071698;28;20090;-64
2021/03/19 07:21:56;;;;;;;19.85;12.90;;;;;;;9.20;100.00;102910.50;5071872;28;20245;-64
2021/03/19 07:24:24;;;;;;;23.45;13.93;;;;;;;9.22;100.00;102902.97;5054578;28;20052;-63
2021/03/19 07:26:53;;;;;;;22.45;13.43;;;;;;;9.26;100.00;102907.03;5071777;28;20029;-63
2021/03/19 07:29:53;;;;;;;24.60;13.10;;;;;;;9.28;100.00;102913.13;5071785;28;20040;-64
2021/03/19 07:32:33;;;;;;;24.00;12.90;;;;;;;9.31;100.00;102907.31;5071955;28;20051;-63
2021/03/19 07:35:24;;;;;;;20.33;13.05;;;;;;;9.37;100.00;102916.63;5071749;28;20549;-64
2021/03/19 07:38:33;;;;;;;20.98;13.25;;;;;;;9.40;100.00;102920.91;5071608;28;20029;-63
2021/03/19 07:41:15;;;;;;;23.95;14.45;;;;;;;9.45;100.00;102918.47;5071472;28;20066;-63
2021/03/19 07:44:07;;;;;;;24.80;12.30;;;;;;;9.49;100.00;102914.31;5071378;28;20445;-64
2021/03/19 07:46:51;;;;;;;18.30;11.90;;;;;;;9.54;100.00;102911.88;5030048;28;20047;-63
2021/03/19 07:49:23;;;;;;;22.70;12.85;;;;;;;9.61;100.00;102921.03;5071465;28;20433;-63
2021/03/19 07:52:20;;;;;;;19.05;12.02;;;;;;;9.66;100.00;102921.31;5071349;28;20119;-63
2021/03/19 07:55:03;;;;;;;17.88;12.27;;;;;;;9.72;100.00;102926.06;5071131;28;20044;-64
2021/03/19 07:57:48;;;;;;;17.88;11.35;;;;;;;9.79;100.00;102927.00;5071150;28;20021;-64
2021/03/19 08:00:40;;;;;;;19.00;11.40;;;;;;;9.83;100.00;102931.03;5071345;28;20097;-63
2021/03/19 08:03:12;;;;;;;15.40;10.98;;;;;;;9.87;100.00;102940.56;5071003;28;20474;-63
2021/03/19 08:05:51;;;;;;;13.95;9.68;;;;;;;9.92;100.00;102938.13;5071245;28;20062;-63
2021/03/19 08:08:20;;;;;;;13.82;9.52;;;;;;;9.95;100.00;102939.63;5071253;28;20040;-63
2021/03/19 08:10:57;;;;;;;15.73;9.32;;;;;;;9.98;100.00;102937.38;5070895;28;20038;-63
2021/03/19 08:13:47;;;;;;;12.38;8.55;;;;;;;10.04;100.00;102952.16;5071112;28;20040;-63
2021/03/19 08:16:34;;;;;;;10.85;7.85;;;;;;;10.08;100.00;102963.56;5070977;28;20040;-63
2021/03/19 08:19:27;;;;;;;7.38;6.55;;;;;;;10.13;100.00;102950.19;5070510;28;20044;-63
2021/03/19 08:22:08;;;;;;;9.95;7.50;;;;;;;10.14;100.00;102951.88;5070896;28;20127;-63
2021/03/19 08:24:47;;;;;;;8.15;5.20;;;;;;;10.20;100.00;102957.44;5070787;28;20044;-64
2021/03/19 08:27:29;;;;;;;11.73;6.60;;;;;;;10.25;100.00;102960.50;5070643;28;20383;-63
2021/03/19 08:30:20;;;;;;;8.93;5.70;;;;;;;10.30;100.00;102957.19;5070956;28;20040;-63
2021/03/19 08:33:13;;;;;;;6.85;5.55;;;;;;;10.34;100.00;102963.97;5070673;28;20090;-63
2021/03/19 08:35:52;;;;;;;5.80;5.28;;;;;;;10.37;100.00;102971.78;5070761;28;20068;-64
2021/03/19 08:38:31;;;;;;;5.80;5.22;;;;;;;10.41;100.00;102964.06;5070737;28;20123;-63
2021/03/19 08:41:07;;;;;;;5.95;4.88;;;;;;;10.47;100.00;102969.63;5070493;28;20055;-63
2021/03/19 08:43:46;;;;;;;5.90;4.70;;;;;;;10.52;100.00;102960.84;5052514;28;20039;-63
2021/03/19 08:46:18;;;;;;;6.07;4.55;;;;;;;10.57;100.00;102961.97;5070542;28;20043;-63
2021/03/19 08:48:53;;;;;;;4.30;3.90;;;;;;;10.64;100.00;102969.44;5069760;28;20031;-62
2021/03/19 08:51:28;;;;;;;6.25;4.10;;;;;;;10.68;100.00;102965.25;5052327;28;20036;-63
2021/03/19 08:54:13;;;;;;;4.80;4.30;;;;;;;10.74;100.00;102972.69;5052276;28;20035;-65
2021/03/19 08:56:46;;;;;;;6.20;4.32;;;;;;;10.78;100.00;102976.75;5056817;28;20039;-63
2021/03/19 08:59:38;;;;;;;6.53;3.50;;;;;;;10.83;100.00;102982.50;5067394;28;20036;-63
2021/03/19 09:02:17;;;;;;;4.82;4.15;;;;;;;10.90;100.00;102974.34;5018897;28;20411;-65
2021/03/19 09:04:55;;;;;;;5.07;4.28;;;;;;;10.94;100.00;102976.53;5071206;28;20036;-64
2021/03/19 09:07:28;;;;;;;5.80;4.07;;;;;;;11.00;100.00;102970.28;5076878;28;20113;-63
2021/03/19 09:09:56;;;;;;;6.22;4.03;;;;;;;11.03;100.00;102969.91;5076724;28;20383;-64
2021/03/19 09:12:28;;;;;;;4.03;3.60;;;;;;;11.08;100.00;102967.41;5076888;28;20068;-64
2021/03/19 09:15:30;;;;;;;5.03;3.72;;;;;;;11.13;100.00;102964.97;5075733;28;20039;-63
2021/03/19 09:17:57;;;;;;;4.00;3.38;;;;;;;11.18;100.00;102975.31;5015190;28;20052;-66
2021/03/19 09:20:26;;;;;;;5.28;3.13;;;;;;;11.21;100.00;102971.34;5053979;28;20452;-62
2021/03/19 09:23:10;;;;;;;5.25;3.30;;;;;;;11.27;100.00;102965.94;5055511;28;20032;-62
2021/03/19 09:25:47;;;;;;;4.37;3.77;;;;;;;11.33;100.00;102975.28;5054233;28;20051;-62
2021/03/19 09:28:17;;;;;;;4.97;3.40;;;;;;;11.34;100.00;102982.44;5040058;28;20376;-63
2021/03/19 09:31:07;;;;;;;3.83;3.35;;;;;;;11.36;100.00;102980.34;5051750;28;20364;-64
2021/03/19 09:33:45;;;;;;;4.50;3.50;;;;;;;11.39;100.00;102985.44;5055838;28;20048;-63
2021/03/19 09:36:48;;;;;;;5.80;3.42;;;;;;;11.42;100.00;102990.50;5055840;28;20104;-61
2021/03/19 09:39:49;;;;;;;3.30;3.00;;;;;;;11.46;100.00;102994.56;5048824;28;20052;-63
2021/03/19 09:42:17;;;;;;;4.82;3.08;;;;;;;11.46;100.00;102983.63;5056431;28;20047;-62
2021/03/19 09:45:12;;;;;;;3.92;2.75;;;;;;;11.48;100.00;102984.25;5056130;28;20068;-64
2021/03/19 09:47:41;;;;;;;4.13;3.33;;;;;;;11.51;100.00;102989.34;5027508;28;20131;-66
2021/03/19 09:50:10;;;;;;;3.50;3.20;;;;;;;11.51;100.00;102989.34;5055799;28;20126;-66
2021/03/19 09:52:37;;;;;;;4.00;2.90;;;;;;;11.53;100.00;103003.69;5056548;28;20033;-63
2021/03/19 09:55:17;;;;;;;5.15;3.28;;;;;;;11.57;100.00;102988.53;5055899;28;20441;-66
2021/03/19 09:57:43;;;;;;;4.18;3.35;;;;;;;11.64;100.00;102999.56;5054281;28;20033;-67
2021/03/19 10:00:16;;;;;;;5.18;3.05;;;;;;;11.72;100.00;102997.53;5056605;28;20033;-68
2021/03/19 10:02:42;;;;;;;6.57;3.65;;;;;;;11.81;100.00;102990.06;5054926;28;20110;-64
2021/03/19 10:05:08;;;;;;;4.55;3.47;;;;;;;11.89;100.00;102987.19;5055494;28;20158;-65
2021/03/19 10:07:53;;;;;;;3.25;2.95;;;;;;;11.96;100.00;102992.69;5051668;28;20179;-65
2021/03/19 10:10:37;;;;;;;2.90;2.60;;;;;;;12.02;100.00;102997.41;5042039;28;20060;-69
2021/03/19 10:13:07;;;;;;;2.80;2.22;;;;;;;12.06;100.00;102993.22;5049455;28;20048;-68
2021/03/19 10:15:33;;;;;;;3.72;2.55;;;;;;;12.07;100.00;102987.53;5050654;28;20021;-67
2021/03/19 10:18:01;;;;;;;5.82;2.60;;;;;;;12.10;100.00;102994.50;5052871;28;20380;-69
2021/03/19 10:20:32;;;;;;;7.50;3.17;;;;;;;12.13;100.00;102999.56;5065862;28;20110;-64
2021/03/19 10:23:07;;;;;;;2.85;2.55;;;;;;;12.15;100.00;102989.28;5072830;28;20032;-63
2021/03/19 10:25:36;;;;;;;3.70;3.05;;;;;;;12.24;100.00;102989.97;5071745;28;20112;-70
2021/03/19 10:28:24;;;;;;;3.97;3.33;;;;;;;12.29;100.00;102980.06;5071829;28;20083;-67
2021/03/19 10:30:58;;;;;;;4.38;3.67;;;;;;;12.36;100.00;102989.22;5071034;28;20124;-67
2021/03/19 10:33:30;;;;;;;3.38;2.90;;;;;;;12.44;100.00;102995.56;5071879;28;20139;-66
2021/03/19 10:35:55;;;;;;;3.30;2.97;;;;;;;12.48;100.00;103005.06;5072312;28;20040;-66
2021/03/19 10:38:38;;;;;;;4.93;3.20;;;;;;;12.59;100.00;103010.84;5072010;28;20471;-65
2021/03/19 10:41:27;;;;;;;3.60;2.40;;;;;;;12.74;100.00;103018.94;5071845;28;20098;-66
2021/03/19 10:43:52;;;;;;;4.10;2.08;;;;;;;12.77;100.00;103018.53;5070024;28;20467;-65
2021/03/19 10:46:39;;;;;;;2.08;1.67;;;;;;;12.80;100.00;103023.59;5071514;28;20032;-68
2021/03/19 10:49:24;;;;;;;2.78;2.17;;;;;;;12.71;100.00;103030.31;5071969;28;20036;-67
2021/03/19 10:51:54;;;;;;;3.10;1.70;;;;;;;12.71;100.00;103029.47;5065343;28;20501;-66
2021/03/19 10:54:28;;;;;;;2.30;1.83;;;;;;;12.92;100.00;103016.47;5070936;28;20032;-66
2021/03/19 10:56:57;;;;;;;3.10;2.17;;;;;;;13.02;100.00;103023.50;5070379;28;20028;-67
2021/03/19 10:59:26;;;;;;;3.33;2.00;;;;;;;13.24;100.00;103022.31;5071105;28;20082;-66
2021/03/19 11:01:51;;;;;;;1.95;1.60;;;;;;;13.10;100.00;103023.31;5071197;28;20471;-65
2021/03/19 11:04:32;;;;;;;2.00;1.70;;;;;;;13.13;100.00;103023.72;5070923;28;20043;-63
2021/03/19 11:06:59;;;;;;;2.20;1.77;;;;;;;13.13;100.00;103009.16;5071278;28;20110;-69
2021/03/19 11:09:27;;;;;;;1.75;1.10;;;;;;;13.16;100.00;103027.94;5071177;28;20040;-70
2021/03/19 11:11:56;;;;;;;1.17;0.88;;;;;;;13.13;100.00;103022.88;5071661;28;20036;-65
2021/03/19 11:14:27;;;;;;;1.67;0.80;;;;;;;13.21;100.00;103018.09;5070298;28;20028;-63
2021/03/19 11:16:56;;;;;;;2.15;0.85;;;;;;;13.19;100.00;103028.44;5070819;28;20028;-72
2021/03/19 11:19:26;;;;;;;1.15;0.80;;;;;;;13.31;100.00;103030.56;5071436;28;20083;-69
2021/03/19 11:22:01;;;;;;;0.73;0.70;;;;;;;13.39;100.00;103031.25;5071882;28;20055;-70
2021/03/19 11:24:39;;;;;;;1.15;0.70;;;;;;;13.68;100.00;103020.91;5071984;28;20051;-70
2021/03/19 11:27:10;;;;;;;0.88;0.60;;;;;;;14.01;100.00;103021.78;5071766;28;20391;-70
2021/03/19 11:29:38;;;;;;;0.43;0.43;;;;;;;14.00;100.00;103025.59;5071614;28;20564;-70
2021/03/19 11:32:07;;;;;;;0.60;0.50;;;;;;;14.10;100.00;103026.03;5071419;28;20493;-70
2021/03/19 11:34:36;;;;;;;1.58;0.75;;;;;;;14.09;100.00;103020.75;5071837;28;20036;-69
2021/03/19 11:37:06;;;;;;;0.65;0.52;;;;;;;13.97;100.00;103017.78;5070123;28;20086;-70
2021/03/19 11:39:32;;;;;;;0.77;0.70;;;;;;;13.94;100.00;103031.94;5071624;28;20028;-70
2021/03/19 11:41:58;;;;;;;1.00;0.85;;;;;;;13.90;100.00;103008.69;5071728;28;20487;-70
2021/03/19 11:44:23;;;;;;;1.00;0.70;;;;;;;13.98;100.00;103026.84;5071339;28;20044;-69
2021/03/19 11:46:49;;;;;;;1.48;0.63;;;;;;;14.04;100.00;103021.34;5071178;28;20510;-70